createdAt,value
2023-05-23T00:02:29.093Z,94013.00
2023-05-23T00:04:58.491Z,94019.00
2023-05-23T00:07:26.348Z,94016.00
2023-05-23T00:09:56.246Z,94009.00
2023-05-23T00:12:23.212Z,94015.00
2023-05-23T00:14:55.466Z,94018.00
2023-05-23T00:17:25.531Z,94016.00
2023-05-23T00:19:52.927Z,94020.00
2023-05-23T00:22:22.359Z,94014.00
2023-05-23T00:24:49.285Z,94007.00
2023-05-23T00:27:16.245Z,94024.00
2023-05-23T00:29:43.142Z,94023.00
2023-05-23T00:32:12.491Z,94012.00
2023-05-23T00:34:41.751Z,94019.00
2023-05-23T00:37:11.769Z,94013.00
2023-05-23T00:39:39.835Z,94021.00
2023-05-23T00:42:09.471Z,94026.00
2023-05-23T00:44:36.411Z,94016.00
2023-05-23T00:47:03.707Z,94027.00
2023-05-23T00:49:33.533Z,94025.00
2023-05-23T00:52:01.073Z,94025.00
2023-05-23T00:54:33.522Z,94023.00
2023-05-23T00:57:00.880Z,94026.00
2023-05-23T00:59:33.091Z,94032.00
2023-05-23T01:02:01.362Z,94039.00
2023-05-23T01:04:34.330Z,94028.00
2023-05-23T01:07:04.342Z,94037.00
2023-05-23T01:09:31.861Z,94033.00
2023-05-23T01:12:46.730Z,94031.00
2023-05-23T01:15:22.353Z,94032.00
2023-05-23T01:18:10.322Z,94033.00
2023-05-23T01:21:28.013Z,94033.00
2023-05-23T01:24:15.730Z,94033.00
2023-05-23T01:27:17.338Z,94024.00
2023-05-23T01:29:52.261Z,94027.00
2023-05-23T01:32:22.945Z,94023.00
2023-05-23T01:34:53.705Z,94023.00
2023-05-23T01:37:22.808Z,94030.00
2023-05-23T01:39:49.707Z,94024.00
2023-05-23T01:42:16.786Z,94029.00
2023-05-23T01:44:51.726Z,94023.00
2023-05-23T01:47:18.813Z,94031.00
2023-05-23T01:49:47.599Z,94022.00
2023-05-23T01:52:17.692Z,94031.00
2023-05-23T01:54:45.347Z,94018.00
2023-05-23T01:57:16.292Z,94020.00
2023-05-23T01:59:43.311Z,94024.00
2023-05-23T02:02:10.758Z,94025.00
2023-05-23T02:04:45.403Z,94027.00
2023-05-23T02:07:12.442Z,94023.00
2023-05-23T02:09:41.955Z,94014.00
2023-05-23T02:12:11.887Z,94029.00
2023-05-23T02:14:39.753Z,94027.00
2023-05-23T02:17:07.644Z,94024.00
2023-05-23T02:19:37.604Z,94032.00
2023-05-23T02:22:07.005Z,94025.00
2023-05-23T02:24:33.903Z,94028.00
2023-05-23T02:27:03.372Z,94024.00
2023-05-23T02:29:34.983Z,94024.00
2023-05-23T02:32:04.459Z,94028.00
2023-05-23T02:34:38.239Z,94021.00
2023-05-23T02:37:07.918Z,94028.00
2023-05-23T02:39:37.268Z,94028.00
2023-05-23T02:42:04.956Z,94030.00
2023-05-23T02:44:34.611Z,94025.00
2023-05-23T02:47:01.709Z,94031.00
2023-05-23T02:49:28.749Z,94031.00
2023-05-23T02:51:58.663Z,94029.00
2023-05-23T02:54:27.800Z,94030.00
2023-05-23T02:56:55.878Z,94033.00
2023-05-23T02:59:27.503Z,94037.00
2023-05-23T03:01:54.518Z,94022.00
2023-05-23T03:04:21.502Z,94038.00
2023-05-23T03:06:48.498Z,94038.00
2023-05-23T03:09:18.925Z,94035.00
2023-05-23T03:11:51.430Z,94040.00
2023-05-23T03:14:18.403Z,94042.00
2023-05-23T03:16:47.625Z,94035.00
2023-05-23T03:19:14.820Z,94038.00
2023-05-23T03:21:41.767Z,94033.00
2023-05-23T03:24:08.906Z,94035.00
2023-05-23T03:26:40.909Z,94032.00
2023-05-23T03:29:07.828Z,94028.00
2023-05-23T03:31:37.048Z,94030.00
2023-05-23T03:34:06.184Z,94028.00
2023-05-23T03:36:35.850Z,94031.00
2023-05-23T03:39:02.812Z,94036.00
2023-05-23T03:41:29.641Z,94042.00
2023-05-23T03:43:56.922Z,94037.00
2023-05-23T03:46:23.959Z,94044.00
2023-05-23T03:48:53.439Z,94033.00
2023-05-23T03:51:20.315Z,94037.00
2023-05-23T03:53:47.184Z,94038.00
2023-05-23T03:56:14.088Z,94042.00
2023-05-23T03:58:46.022Z,94047.00
2023-05-23T04:01:15.134Z,94046.00
2023-05-23T04:03:44.742Z,94046.00
2023-05-23T04:06:14.709Z,94048.00
2023-05-23T04:08:42.098Z,94049.00
2023-05-23T04:11:09.114Z,94048.00
2023-05-23T04:13:38.700Z,94047.00
2023-05-23T04:16:08.668Z,94048.00
2023-05-23T04:18:40.679Z,94050.00
2023-05-23T04:21:10.156Z,94049.00
2023-05-23T04:23:37.887Z,94046.00
2023-05-23T04:26:08.121Z,94051.00
2023-05-23T04:28:35.326Z,94049.00
2023-05-23T04:31:03.329Z,94051.00
2023-05-23T04:33:30.795Z,94052.00
2023-05-23T04:35:57.870Z,94067.00
2023-05-23T04:38:25.217Z,94065.00
2023-05-23T04:40:54.730Z,94061.00
2023-05-23T04:43:21.991Z,94063.00
2023-05-23T04:45:57.828Z,94066.00
2023-05-23T04:48:24.884Z,94067.00
2023-05-23T04:50:56.087Z,94073.00
2023-05-23T04:53:25.569Z,94071.00
2023-05-23T04:55:52.643Z,94074.00
2023-05-23T04:58:19.603Z,94075.00
2023-05-23T05:00:46.527Z,94072.00
2023-05-23T05:03:13.464Z,94078.00
2023-05-23T05:05:40.728Z,94079.00
2023-05-23T05:08:07.714Z,94080.00
2023-05-23T05:10:34.679Z,94072.00
2023-05-23T05:13:01.594Z,94077.00
2023-05-23T05:15:31.028Z,94075.00
2023-05-23T05:17:58.142Z,94084.00
2023-05-23T05:20:25.471Z,94089.00
2023-05-23T05:22:58.865Z,94089.00
2023-05-23T05:25:31.932Z,94089.00
2023-05-23T05:28:06.057Z,94092.00
2023-05-23T05:30:39.444Z,94090.00
2023-05-23T05:33:07.699Z,94092.00
2023-05-23T05:35:38.547Z,94085.00
2023-05-23T05:38:05.807Z,94089.00
2023-05-23T05:40:33.094Z,94088.00
2023-05-23T05:43:04.675Z,94091.00
2023-05-23T05:45:34.666Z,94099.00
2023-05-23T05:48:01.673Z,94096.00
2023-05-23T05:50:28.605Z,94096.00
2023-05-23T05:52:57.676Z,94095.00
2023-05-23T05:55:24.567Z,94094.00
2023-05-23T05:57:53.735Z,94089.00
2023-05-23T06:00:23.986Z,94088.00
2023-05-23T06:02:57.476Z,94098.00
2023-05-23T06:05:26.648Z,94097.00
2023-05-23T06:07:53.648Z,94079.00
2023-05-23T06:10:22.895Z,94099.00
2023-05-23T06:12:50.226Z,94104.00
2023-05-23T06:15:17.859Z,94096.00
2023-05-23T06:17:45.072Z,94089.00
2023-05-23T06:20:17.602Z,94100.00
2023-05-23T06:22:47.274Z,94104.00
2023-05-23T06:25:16.828Z,94104.00
2023-05-23T06:27:44.929Z,94092.00
2023-05-23T06:30:12.793Z,94100.00
2023-05-23T06:32:41.397Z,94098.00
2023-05-23T06:35:09.027Z,94107.00
2023-05-23T06:37:36.082Z,94109.00
2023-05-23T06:40:03.305Z,94112.00
2023-05-23T06:42:32.740Z,94106.00
2023-05-23T06:44:59.742Z,94105.00
2023-05-23T06:47:28.943Z,94102.00
2023-05-23T06:49:58.354Z,94106.00
2023-05-23T06:52:25.390Z,94098.00
2023-05-23T06:54:52.298Z,94105.00
2023-05-23T06:57:19.249Z,94102.00
2023-05-23T06:59:46.251Z,94108.00
2023-05-23T07:02:13.210Z,94108.00
2023-05-23T07:04:42.673Z,94119.00
2023-05-23T07:07:09.554Z,94112.00
2023-05-23T07:09:36.530Z,94109.00
2023-05-23T07:12:07.063Z,94116.00
2023-05-23T07:14:38.241Z,94119.00
2023-05-23T07:17:05.349Z,94122.00
2023-05-23T07:19:34.713Z,94122.00
2023-05-23T07:22:01.811Z,94127.00
2023-05-23T07:24:31.866Z,94119.00
2023-05-23T07:27:01.265Z,94124.00
2023-05-23T07:29:28.188Z,94118.00
2023-05-23T07:31:55.195Z,94119.00
2023-05-23T07:34:24.733Z,94122.00
2023-05-23T07:36:51.702Z,94119.00
2023-05-23T07:39:22.589Z,94124.00
2023-05-23T07:41:50.212Z,94127.00
2023-05-23T07:44:25.164Z,94114.00
2023-05-23T07:46:52.647Z,94129.00
2023-05-23T07:49:19.786Z,94131.00
2023-05-23T07:51:49.340Z,94127.00
2023-05-23T07:54:18.652Z,94122.00
2023-05-23T07:56:45.949Z,94119.00
2023-05-23T07:59:13.327Z,94114.00
2023-05-23T08:01:42.937Z,94121.00
2023-05-23T08:04:09.853Z,94115.00
2023-05-23T08:06:48.651Z,94120.00
2023-05-23T08:09:27.894Z,94118.00
2023-05-23T08:11:57.120Z,94118.00
2023-05-23T08:14:27.395Z,94101.00
2023-05-23T08:17:01.390Z,94112.00
2023-05-23T08:19:31.537Z,94113.00
2023-05-23T08:21:58.635Z,94109.00
2023-05-23T08:24:27.788Z,94111.00
2023-05-23T08:26:54.717Z,94102.00
2023-05-23T08:29:22.153Z,94102.00
2023-05-23T08:31:49.060Z,94099.00
2023-05-23T08:34:18.328Z,94113.00
2023-05-23T08:36:45.418Z,94116.00
2023-05-23T08:39:15.052Z,94120.00
2023-05-23T08:41:47.497Z,94121.00
2023-05-23T08:44:16.687Z,94119.00
2023-05-23T08:46:49.861Z,94116.00
2023-05-23T08:49:18.433Z,94125.00
2023-05-23T08:51:48.366Z,94123.00
2023-05-23T08:54:15.467Z,94118.00
2023-05-23T08:56:44.208Z,94123.00
2023-05-23T08:59:15.263Z,94129.00
2023-05-23T09:01:46.234Z,94123.00
2023-05-23T09:04:13.344Z,94134.00
2023-05-23T09:06:40.538Z,94136.00
2023-05-23T09:09:08.723Z,94138.00
2023-05-23T09:11:36.519Z,94143.00
2023-05-23T09:14:05.314Z,94138.00
2023-05-23T09:16:35.688Z,94143.00
2023-05-23T09:19:14.184Z,94134.00
2023-05-23T09:21:47.414Z,94138.00
2023-05-23T09:24:14.346Z,94135.00
2023-05-23T09:26:45.857Z,94136.00
2023-05-23T09:29:22.513Z,94144.00
2023-05-23T09:31:53.982Z,94136.00
2023-05-23T09:34:26.713Z,94138.00
2023-05-23T09:36:57.928Z,94134.00
2023-05-23T09:39:27.032Z,94138.00
2023-05-23T09:41:53.927Z,94138.00
2023-05-23T09:44:26.903Z,94144.00
2023-05-23T09:46:53.952Z,94142.00
2023-05-23T09:49:22.405Z,94141.00
2023-05-23T09:51:59.769Z,94135.00
2023-05-23T09:54:26.975Z,94136.00
2023-05-23T09:56:57.227Z,94138.00
2023-05-23T09:59:28.719Z,94140.00
2023-05-23T10:01:59.230Z,94139.00
2023-05-23T10:04:26.903Z,94136.00
2023-05-23T10:07:00.063Z,94125.00
2023-05-23T10:09:32.587Z,94122.00
2023-05-23T10:12:43.477Z,94118.00
2023-05-23T10:15:17.015Z,94116.00
2023-05-23T10:18:15.274Z,94115.00
2023-05-23T10:20:48.387Z,94113.00
2023-05-23T10:23:18.638Z,94093.00
2023-05-23T10:25:48.732Z,94097.00
2023-05-23T10:28:16.206Z,94094.00
2023-05-23T10:30:46.183Z,94101.00
2023-05-23T10:33:16.889Z,94094.00
2023-05-23T10:36:19.574Z,94099.00
2023-05-23T10:38:57.958Z,94097.00
2023-05-23T10:41:39.335Z,94095.00
2023-05-23T10:44:25.753Z,94098.00
2023-05-23T10:46:58.957Z,94096.00
2023-05-23T10:49:45.582Z,94089.00
2023-05-23T10:52:15.592Z,94085.00
2023-05-23T10:54:53.275Z,94080.00
2023-05-23T10:57:26.944Z,94078.00
2023-05-23T10:59:56.520Z,94082.00
2023-05-23T11:02:29.319Z,94075.00
2023-05-23T11:05:33.771Z,94079.00
2023-05-23T11:08:09.543Z,94076.00
2023-05-23T11:11:01.193Z,94080.00
2023-05-23T11:13:53.010Z,94083.00
2023-05-23T11:16:42.095Z,94075.00
2023-05-23T11:19:21.776Z,94089.00
2023-05-23T11:22:02.685Z,94093.00
2023-05-23T11:24:52.734Z,94093.00
2023-05-23T11:27:40.378Z,94092.00
2023-05-23T11:30:15.686Z,94097.00
2023-05-23T11:32:50.300Z,94104.00
2023-05-23T11:35:20.091Z,94103.00
2023-05-23T11:37:47.681Z,94096.00
2023-05-23T11:40:27.832Z,94108.00
2023-05-23T11:42:55.856Z,94106.00
2023-05-23T11:45:27.208Z,94105.00
2023-05-23T11:47:54.399Z,94113.00
2023-05-23T11:50:24.407Z,94110.00
2023-05-23T11:52:52.045Z,94116.00
2023-05-23T11:55:25.513Z,94113.00
2023-05-23T11:57:55.682Z,94121.00
2023-05-23T12:00:22.653Z,94122.00
2023-05-23T12:02:49.736Z,94120.00
2023-05-23T12:05:19.146Z,94123.00
2023-05-23T12:07:49.284Z,94110.00
2023-05-23T12:10:18.149Z,94115.00
2023-05-23T12:12:47.800Z,94116.00
2023-05-23T12:15:15.952Z,94117.00
2023-05-23T12:17:46.592Z,94112.00
2023-05-23T12:20:14.208Z,94112.00
2023-05-23T12:22:42.500Z,94106.00
2023-05-23T12:25:12.946Z,94104.00
2023-05-23T12:27:44.315Z,94103.00
2023-05-23T12:30:16.445Z,94098.00
2023-05-23T12:32:46.864Z,94096.00
2023-05-23T12:35:16.104Z,94091.00
2023-05-23T12:37:48.793Z,94095.00
2023-05-23T12:40:18.256Z,94095.00
2023-05-23T12:42:57.613Z,94097.00
2023-05-23T12:45:39.514Z,94104.00
2023-05-23T12:48:09.323Z,94099.00
2023-05-23T12:50:39.134Z,94109.00
2023-05-23T12:53:06.099Z,94107.00
2023-05-23T12:55:33.019Z,94111.00
2023-05-23T12:57:59.901Z,94108.00
2023-05-23T13:00:31.897Z,94110.00
2023-05-23T13:03:01.464Z,94107.00
2023-05-23T13:05:28.442Z,94116.00
2023-05-23T13:07:55.691Z,94123.00
2023-05-23T13:10:22.626Z,94118.00
2023-05-23T13:12:52.079Z,94125.00
2023-05-23T13:15:19.180Z,94117.00
2023-05-23T13:17:50.182Z,94118.00
2023-05-23T13:20:17.809Z,94119.00
2023-05-23T13:22:44.714Z,94121.00
2023-05-23T13:25:15.645Z,94118.00
2023-05-23T13:27:42.616Z,94121.00
2023-05-23T13:30:10.183Z,94118.00
2023-05-23T13:32:37.121Z,94122.00
2023-05-23T13:35:06.705Z,94118.00
2023-05-23T13:37:33.695Z,94118.00
2023-05-23T13:40:03.788Z,94108.00
2023-05-23T13:42:35.384Z,94121.00
2023-05-23T13:45:07.877Z,94111.00
2023-05-23T13:47:35.472Z,94109.00
2023-05-23T13:50:04.746Z,94110.00
2023-05-23T13:52:33.979Z,94106.00
2023-05-23T13:55:01.612Z,94111.00
2023-05-23T13:57:28.639Z,94110.00
2023-05-23T13:59:55.640Z,94105.00
2023-05-23T14:02:22.917Z,94111.00
2023-05-23T14:04:57.049Z,94103.00
2023-05-23T14:07:24.023Z,94101.00
2023-05-23T14:09:53.187Z,94105.00
2023-05-23T14:12:20.143Z,94113.00
2023-05-23T14:14:47.072Z,94109.00
2023-05-23T14:17:17.177Z,94107.00
2023-05-23T14:19:44.422Z,94107.00
2023-05-23T14:22:11.530Z,94123.00
2023-05-23T14:24:38.534Z,94118.00
2023-05-23T14:27:08.097Z,94119.00
2023-05-23T14:29:36.448Z,94115.00
2023-05-23T14:32:05.889Z,94118.00
2023-05-23T14:34:33.030Z,94106.00
2023-05-23T14:37:03.716Z,94110.00
2023-05-23T14:39:36.021Z,94114.00
2023-05-23T14:42:05.428Z,94109.00
2023-05-23T14:44:37.145Z,94119.00
2023-05-23T14:47:06.482Z,94109.00
2023-05-23T14:49:33.361Z,94123.00
2023-05-23T14:52:00.307Z,94120.00
2023-05-23T14:54:27.507Z,94122.00
2023-05-23T14:56:57.032Z,94127.00
2023-05-23T14:59:26.499Z,94120.00
2023-05-23T15:01:55.832Z,94121.00
2023-05-23T15:04:25.461Z,94115.00
2023-05-23T15:06:52.635Z,94111.00
2023-05-23T15:09:19.547Z,94111.00
2023-05-23T15:11:49.314Z,94109.00
2023-05-23T15:14:22.023Z,94114.00
2023-05-23T15:16:50.446Z,94117.00
2023-05-23T15:19:17.556Z,94114.00
2023-05-23T15:21:50.319Z,94117.00
2023-05-23T15:24:18.452Z,94116.00
2023-05-23T15:26:45.458Z,94116.00
2023-05-23T15:29:14.579Z,94110.00
2023-05-23T15:31:45.000Z,94117.00
2023-05-23T15:34:14.952Z,94117.00
2023-05-23T15:36:41.970Z,94110.00
2023-05-23T15:39:08.936Z,94110.00
2023-05-23T15:41:38.785Z,94114.00
2023-05-23T15:44:05.960Z,94112.00
2023-05-23T15:46:36.957Z,94115.00
2023-05-23T15:49:13.739Z,94116.00
2023-05-23T15:51:48.864Z,94131.00
2023-05-23T15:54:20.435Z,94135.00
2023-05-23T15:56:47.401Z,94127.00
2023-05-23T15:59:14.348Z,94129.00
2023-05-23T16:01:41.966Z,94128.00
2023-05-23T16:04:12.216Z,94136.00
2023-05-23T16:06:42.312Z,94130.00
2023-05-23T16:09:11.564Z,94138.00
2023-05-23T16:11:38.573Z,94147.00
2023-05-23T16:14:08.703Z,94144.00
2023-05-23T16:16:35.723Z,94138.00
2023-05-23T16:19:06.023Z,94141.00
2023-05-23T16:21:33.328Z,94135.00
2023-05-23T16:24:02.893Z,94141.00
2023-05-23T16:26:31.966Z,94145.00
2023-05-23T16:29:01.207Z,94147.00
2023-05-23T16:31:33.727Z,94143.00
2023-05-23T16:34:02.971Z,94143.00
2023-05-23T16:36:29.968Z,94144.00
2023-05-23T16:38:58.980Z,94142.00
2023-05-23T16:41:26.348Z,94142.00
2023-05-23T16:43:55.757Z,94145.00
2023-05-23T16:46:25.330Z,94141.00
2023-05-23T16:48:56.141Z,94148.00
2023-05-23T16:51:23.090Z,94140.00
2023-05-23T16:53:52.291Z,94139.00
2023-05-23T16:56:19.242Z,94139.00
2023-05-23T16:58:48.668Z,94139.00
2023-05-23T17:01:16.904Z,94140.00
2023-05-23T17:03:47.252Z,94141.00
2023-05-23T17:06:21.524Z,94128.00
2023-05-23T17:08:48.452Z,94141.00
2023-05-23T17:11:15.636Z,94140.00
2023-05-23T17:13:47.617Z,94148.00
2023-05-23T17:16:20.724Z,94149.00
2023-05-23T17:18:50.219Z,94157.00
2023-05-23T17:21:17.253Z,94151.00
2023-05-23T17:23:44.997Z,94152.00
2023-05-23T17:26:11.989Z,94147.00
2023-05-23T17:28:38.993Z,94150.00
2023-05-23T17:31:08.499Z,94151.00
2023-05-23T17:33:35.637Z,94158.00
2023-05-23T17:36:03.468Z,94153.00
2023-05-23T17:38:30.459Z,94156.00
2023-05-23T17:40:57.360Z,94153.00
2023-05-23T17:43:24.275Z,94156.00
2023-05-23T17:45:54.531Z,94147.00
2023-05-23T17:48:45.251Z,94161.00
2023-05-23T17:51:16.199Z,94160.00
2023-05-23T17:53:45.734Z,94157.00
2023-05-23T17:56:14.914Z,94162.00
2023-05-23T17:58:44.460Z,94159.00
2023-05-23T18:01:11.780Z,94167.00
2023-05-23T18:03:39.008Z,94164.00
2023-05-23T18:06:08.585Z,94177.00
2023-05-23T18:08:35.654Z,94170.00
2023-05-23T18:11:09.724Z,94172.00
2023-05-23T18:13:36.633Z,94176.00
2023-05-23T18:16:03.658Z,94182.00
2023-05-23T18:18:33.033Z,94178.00
2023-05-23T18:21:00.580Z,94188.00
2023-05-23T18:23:29.961Z,94188.00
2023-05-23T18:25:59.312Z,94185.00
2023-05-23T18:28:30.202Z,94185.00
2023-05-23T18:30:59.248Z,94187.00
2023-05-23T18:33:28.726Z,94185.00
2023-05-23T18:36:03.103Z,94186.00
2023-05-23T18:38:30.039Z,94195.00
2023-05-23T18:41:00.522Z,94195.00
2023-05-23T18:43:29.936Z,94205.00
2023-05-23T18:45:57.123Z,94205.00
2023-05-23T18:48:24.114Z,94210.00
2023-05-23T18:50:51.183Z,94211.00
2023-05-23T18:53:18.416Z,94216.00
2023-05-23T18:55:47.385Z,94214.00
2023-05-23T18:58:14.286Z,94217.00
2023-05-23T19:00:44.702Z,94221.00
2023-05-23T19:03:11.768Z,94220.00
2023-05-23T19:05:38.801Z,94228.00
2023-05-23T19:08:08.715Z,94223.00
2023-05-23T19:10:35.667Z,94226.00
2023-05-23T19:13:07.826Z,94222.00
2023-05-23T19:15:37.235Z,94228.00
2023-05-23T19:18:04.551Z,94230.00
2023-05-23T19:20:34.058Z,94242.00
2023-05-23T19:23:01.063Z,94239.00
2023-05-23T19:25:30.862Z,94243.00
2023-05-23T19:27:57.901Z,94247.00
2023-05-23T19:30:24.937Z,94258.00
2023-05-23T19:32:56.802Z,94260.00
2023-05-23T19:35:26.144Z,94252.00
2023-05-23T19:37:56.626Z,94254.00
2023-05-23T19:40:24.777Z,94263.00
2023-05-23T19:42:53.831Z,94262.00
2023-05-23T19:45:21.356Z,94265.00
2023-05-23T19:47:50.999Z,94265.00
2023-05-23T19:50:17.969Z,94258.00
2023-05-23T19:52:44.921Z,94264.00
2023-05-23T19:55:14.692Z,94268.00
2023-05-23T19:57:44.064Z,94275.00
2023-05-23T20:00:14.846Z,94273.00
2023-05-23T20:02:42.686Z,94276.00
2023-05-23T20:05:10.009Z,94271.00
2023-05-23T20:07:37.591Z,94275.00
2023-05-23T20:10:05.365Z,94270.00
2023-05-23T20:12:34.964Z,94276.00
2023-05-23T20:15:02.890Z,94279.00
2023-05-23T20:17:30.727Z,94280.00
2023-05-23T20:20:00.037Z,94288.00
2023-05-23T20:22:27.234Z,94292.00
2023-05-23T20:24:54.128Z,94293.00
2023-05-23T20:27:21.704Z,94299.00
2023-05-23T20:29:51.462Z,94292.00
2023-05-23T20:32:18.583Z,94300.00
2023-05-23T20:34:45.541Z,94304.00
2023-05-23T20:37:17.325Z,94303.00
2023-05-23T20:39:44.249Z,94310.00
2023-05-23T20:42:11.152Z,94309.00
2023-05-23T20:44:41.170Z,94313.00
2023-05-23T20:47:13.032Z,94310.00
2023-05-23T20:49:40.494Z,94321.00
2023-05-23T20:52:08.046Z,94317.00
2023-05-23T20:54:42.566Z,94322.00
2023-05-23T20:57:09.642Z,94310.00
2023-05-23T20:59:38.008Z,94315.00
2023-05-23T21:02:05.196Z,94311.00
2023-05-23T21:04:32.280Z,94309.00
2023-05-23T21:06:59.713Z,94312.00
2023-05-23T21:09:29.753Z,94322.00
2023-05-23T21:12:01.922Z,94330.00
2023-05-23T21:14:28.817Z,94328.00
2023-05-23T21:16:55.873Z,94331.00
2023-05-23T21:19:22.856Z,94328.00
2023-05-23T21:21:53.183Z,94325.00
2023-05-23T21:24:26.907Z,94326.00
2023-05-23T21:26:53.869Z,94326.00
2023-05-23T21:29:22.982Z,94325.00
2023-05-23T21:31:50.068Z,94324.00
2023-05-23T21:34:24.001Z,94320.00
2023-05-23T21:36:59.450Z,94320.00
2023-05-23T21:39:30.798Z,94325.00
2023-05-23T21:42:03.479Z,94324.00
2023-05-23T21:44:30.463Z,94331.00
2023-05-23T21:47:00.071Z,94323.00
2023-05-23T21:49:27.074Z,94323.00
2023-05-23T21:51:54.031Z,94332.00
2023-05-23T21:54:21.008Z,94328.00
2023-05-23T21:56:50.393Z,94331.00
2023-05-23T21:59:19.667Z,94334.00
2023-05-23T22:01:46.856Z,94332.00
2023-05-23T22:04:14.656Z,94329.00
2023-05-23T22:06:41.655Z,94329.00
2023-05-23T22:09:11.609Z,94327.00
2023-05-23T22:11:38.913Z,94326.00
2023-05-23T22:14:08.501Z,94323.00
2023-05-23T22:16:41.299Z,94330.00
2023-05-23T22:19:12.407Z,94327.00
2023-05-23T22:21:39.509Z,94330.00
2023-05-23T22:24:08.809Z,94331.00
2023-05-23T22:26:39.217Z,94331.00
2023-05-23T22:29:09.204Z,94327.00
2023-05-23T22:31:36.123Z,94326.00
2023-05-23T22:34:03.632Z,94319.00
2023-05-23T22:36:33.788Z,94329.00
2023-05-23T22:39:02.360Z,94329.00
2023-05-23T22:41:32.184Z,94323.00
2023-05-23T22:43:59.132Z,94321.00
2023-05-23T22:46:26.093Z,94317.00
2023-05-23T22:48:55.127Z,94312.00
2023-05-23T22:51:22.312Z,94313.00
2023-05-23T22:53:49.351Z,94316.00
2023-05-23T22:56:18.983Z,94324.00
2023-05-23T22:58:48.946Z,94326.00
2023-05-23T23:01:15.950Z,94323.00
2023-05-23T23:03:45.554Z,94324.00
2023-05-23T23:06:17.043Z,94318.00
2023-05-23T23:08:47.594Z,94326.00
2023-05-23T23:11:16.629Z,94314.00
2023-05-23T23:13:43.521Z,94318.00
2023-05-23T23:16:13.412Z,94318.00
2023-05-23T23:18:40.329Z,94315.00
2023-05-23T23:21:12.729Z,94309.00
2023-05-23T23:23:39.754Z,94314.00
2023-05-23T23:26:09.198Z,94310.00
2023-05-23T23:28:38.732Z,94307.00
2023-05-23T23:31:05.786Z,94304.00
2023-05-23T23:33:32.664Z,94303.00
2023-05-23T23:35:59.560Z,94298.00
2023-05-23T23:38:28.697Z,94293.00
2023-05-23T23:40:55.722Z,94291.00
2023-05-23T23:43:25.051Z,94295.00
2023-05-23T23:45:54.382Z,94294.00
2023-05-23T23:48:23.783Z,94292.00
2023-05-23T23:50:50.733Z,94283.00
2023-05-23T23:53:22.469Z,94285.00
2023-05-23T23:55:54.279Z,94280.00
2023-05-23T23:58:21.211Z,94283.00
